createdAt,value
2018-07-15T00:01:05.553Z,86.10
2018-07-15T00:03:33.857Z,85.20
2018-07-15T00:06:02.171Z,85.30
2018-07-15T00:08:30.496Z,85.00
2018-07-15T00:10:58.858Z,85.00
2018-07-15T00:13:27.171Z,86.10
2018-07-15T00:15:55.488Z,85.60
2018-07-15T00:18:23.881Z,85.20
2018-07-15T00:20:52.194Z,85.60
2018-07-15T00:23:21.148Z,86.10
2018-07-15T00:25:49.484Z,85.60
2018-07-15T00:28:17.805Z,85.70
2018-07-15T00:30:46.136Z,87.00
2018-07-15T00:33:14.440Z,87.90
2018-07-15T00:35:42.736Z,89.50
2018-07-15T00:38:11.057Z,89.30
2018-07-15T00:40:39.396Z,89.40
2018-07-15T00:43:07.799Z,89.00
2018-07-15T00:45:36.180Z,88.70
2018-07-15T00:48:04.651Z,88.70
2018-07-15T00:50:32.999Z,88.30
2018-07-15T00:53:01.349Z,88.40
2018-07-15T00:55:29.663Z,88.50
2018-07-15T00:57:58.045Z,88.20
2018-07-15T01:00:31.716Z,88.00
2018-07-15T01:03:00.028Z,88.30
2018-07-15T01:05:28.320Z,88.40
2018-07-15T01:07:56.652Z,89.30
2018-07-15T01:10:24.976Z,89.00
2018-07-15T01:12:53.311Z,89.60
2018-07-15T01:15:21.627Z,89.50
2018-07-15T01:17:49.981Z,89.00
2018-07-15T01:20:18.477Z,89.30
2018-07-15T01:22:46.811Z,89.20
2018-07-15T01:25:15.119Z,89.40
2018-07-15T01:27:43.441Z,90.10
2018-07-15T01:30:11.757Z,90.10
2018-07-15T01:32:40.081Z,90.20
2018-07-15T01:35:08.404Z,90.40
2018-07-15T01:37:36.739Z,90.80
2018-07-15T01:40:05.080Z,90.90
2018-07-15T01:42:33.412Z,91.00
2018-07-15T01:45:02.235Z,90.90
2018-07-15T01:47:30.553Z,90.70
2018-07-15T01:49:59.764Z,90.20
2018-07-15T01:52:28.073Z,90.10
2018-07-15T01:54:56.931Z,90.10
2018-07-15T01:57:25.275Z,90.60
2018-07-15T01:59:54.568Z,90.30
2018-07-15T02:02:22.888Z,90.90
2018-07-15T02:04:51.228Z,91.00
2018-07-15T02:07:19.563Z,91.50
2018-07-15T02:09:47.892Z,91.60
2018-07-15T02:12:16.200Z,92.00
2018-07-15T02:14:44.555Z,92.20
2018-07-15T02:17:12.884Z,92.10
2018-07-15T02:19:41.215Z,92.10
2018-07-15T02:22:10.331Z,92.20
2018-07-15T02:24:38.691Z,92.10
2018-07-15T02:27:07.276Z,92.10
2018-07-15T02:29:35.580Z,91.80
2018-07-15T02:32:04.625Z,92.30
2018-07-15T02:34:32.939Z,91.90
2018-07-15T02:37:01.508Z,91.70
2018-07-15T02:39:29.844Z,91.90
2018-07-15T02:41:58.170Z,92.70
2018-07-15T02:44:26.483Z,92.60
2018-07-15T02:46:54.839Z,92.80
2018-07-15T02:49:23.141Z,92.60
2018-07-15T02:51:51.681Z,93.00
2018-07-15T02:54:19.992Z,93.50
2018-07-15T02:56:48.295Z,93.30
2018-07-15T02:59:16.609Z,93.10
2018-07-15T03:01:44.912Z,93.30
2018-07-15T03:04:13.216Z,93.60
2018-07-15T03:06:41.525Z,93.30
2018-07-15T03:09:11.316Z,93.90
2018-07-15T03:11:39.620Z,93.80
2018-07-15T03:14:08.319Z,93.70
2018-07-15T03:16:36.652Z,94.00
2018-07-15T03:19:04.964Z,93.70
2018-07-15T03:21:33.291Z,92.70
2018-07-15T03:24:01.600Z,92.10
2018-07-15T03:26:29.908Z,92.70
2018-07-15T03:28:58.220Z,92.40
2018-07-15T03:31:26.519Z,93.50
2018-07-15T03:33:54.836Z,93.80
2018-07-15T03:36:23.144Z,92.90
2018-07-15T03:38:51.451Z,93.50
2018-07-15T03:41:19.743Z,93.00
2018-07-15T03:43:48.304Z,93.00
2018-07-15T03:46:16.600Z,92.50
2018-07-15T03:48:44.900Z,93.50
2018-07-15T03:51:13.217Z,94.70
2018-07-15T03:53:41.528Z,94.80
2018-07-15T03:56:09.868Z,94.80
2018-07-15T03:58:38.207Z,94.60
2018-07-15T04:01:06.516Z,94.60
2018-07-15T04:03:34.820Z,94.40
2018-07-15T04:06:03.156Z,94.40
2018-07-15T04:08:31.484Z,94.60
2018-07-15T04:10:59.760Z,94.70
2018-07-15T04:13:28.082Z,94.80
2018-07-15T04:15:56.388Z,94.50
2018-07-15T04:18:24.707Z,94.50
2018-07-15T04:20:53.047Z,94.60
2018-07-15T04:23:21.404Z,94.90
2018-07-15T04:25:49.704Z,94.70
2018-07-15T04:28:18.094Z,94.80
2018-07-15T04:30:46.326Z,94.90
2018-07-15T04:33:14.640Z,95.00
2018-07-15T04:35:42.941Z,95.00
2018-07-15T04:38:11.288Z,95.00
2018-07-15T04:40:39.624Z,95.10
2018-07-15T04:43:07.960Z,95.10
2018-07-15T04:45:36.280Z,95.20
2018-07-15T04:48:04.636Z,95.00
2018-07-15T04:50:33.041Z,95.00
2018-07-15T04:53:01.980Z,95.00
2018-07-15T04:55:31.017Z,95.50
2018-07-15T04:57:59.328Z,95.40
2018-07-15T05:00:27.708Z,95.30
2018-07-15T05:02:57.856Z,95.30
2018-07-15T05:05:26.192Z,95.30
2018-07-15T05:07:54.503Z,95.40
2018-07-15T05:10:22.823Z,95.00
2018-07-15T05:12:51.132Z,95.30
2018-07-15T05:15:19.495Z,95.60
2018-07-15T05:17:47.807Z,95.60
2018-07-15T05:20:16.209Z,95.90
2018-07-15T05:22:44.512Z,96.00
2018-07-15T05:25:12.900Z,95.60
2018-07-15T05:27:41.721Z,95.60
2018-07-15T05:30:10.031Z,96.10
2018-07-15T05:32:38.355Z,95.60
2018-07-15T05:35:06.694Z,95.80
2018-07-15T05:37:35.009Z,96.00
2018-07-15T05:40:03.376Z,95.30
2018-07-15T05:42:31.752Z,95.30
2018-07-15T05:45:00.419Z,95.00
2018-07-15T05:47:28.735Z,95.00
2018-07-15T05:49:57.047Z,94.90
2018-07-15T05:52:25.429Z,94.40
2018-07-15T05:54:54.210Z,94.70
2018-07-15T05:57:22.508Z,94.60
2018-07-15T05:59:50.842Z,94.40
2018-07-15T06:02:19.144Z,94.30
2018-07-15T06:04:47.440Z,94.00
2018-07-15T06:07:16.344Z,93.70
2018-07-15T06:09:44.699Z,93.40
2018-07-15T06:12:13.064Z,93.60
2018-07-15T06:14:41.392Z,93.40
2018-07-15T06:17:09.713Z,93.30
2018-07-15T06:19:38.033Z,93.30
2018-07-15T06:22:06.339Z,93.20
2018-07-15T06:24:34.725Z,93.10
2018-07-15T06:27:03.048Z,92.70
2018-07-15T06:29:31.507Z,92.90
2018-07-15T06:31:59.801Z,92.60
2018-07-15T06:34:28.244Z,93.00
2018-07-15T06:36:56.550Z,93.10
2018-07-15T06:39:24.870Z,93.00
2018-07-15T06:41:53.192Z,92.60
2018-07-15T06:44:21.508Z,91.90
2018-07-15T06:46:49.845Z,91.80
2018-07-15T06:49:18.199Z,91.60
2018-07-15T06:51:47.159Z,90.70
2018-07-15T06:54:15.512Z,90.80
2018-07-15T06:56:44.069Z,92.20
2018-07-15T06:59:12.469Z,90.50
2018-07-15T07:01:40.859Z,90.40
2018-07-15T07:04:09.178Z,90.40
2018-07-15T07:06:37.495Z,90.50
2018-07-15T07:09:06.566Z,90.40
2018-07-15T07:11:35.289Z,89.20
2018-07-15T07:14:05.683Z,89.70
2018-07-15T07:16:34.248Z,89.00
2018-07-15T07:19:02.636Z,89.10
2018-07-15T07:21:30.957Z,89.70
2018-07-15T07:23:59.253Z,89.10
2018-07-15T07:26:27.580Z,88.30
2018-07-15T07:28:55.940Z,88.00
2018-07-15T07:31:24.236Z,88.10
2018-07-15T07:33:52.539Z,88.00
2018-07-15T07:36:20.943Z,87.40
2018-07-15T07:38:49.332Z,88.20
2018-07-15T07:41:17.630Z,86.60
2018-07-15T07:43:46.847Z,85.70
2018-07-15T07:46:15.288Z,85.50
2018-07-15T07:48:43.705Z,85.00
2018-07-15T07:51:12.039Z,86.00
2018-07-15T07:53:40.383Z,86.10
2018-07-15T07:56:08.724Z,86.00
2018-07-15T07:58:37.097Z,84.50
2018-07-15T08:01:05.420Z,84.90
2018-07-15T08:03:33.820Z,85.00
2018-07-15T08:06:02.328Z,83.20
2018-07-15T08:08:30.821Z,83.40
2018-07-15T08:10:59.203Z,85.00
2018-07-15T08:13:27.528Z,80.30
2018-07-15T08:15:55.904Z,81.90
2018-07-15T08:18:24.264Z,82.40
2018-07-15T08:20:52.592Z,81.30
2018-07-15T08:23:20.912Z,80.60
2018-07-15T08:25:49.245Z,78.80
2018-07-15T08:28:17.712Z,82.10
2018-07-15T08:30:57.116Z,81.50
2018-07-15T08:33:25.442Z,78.90
2018-07-15T08:35:53.758Z,77.60
2018-07-15T08:38:22.300Z,78.90
2018-07-15T08:40:51.011Z,74.50
2018-07-15T08:43:19.372Z,73.10
2018-07-15T08:45:48.407Z,79.60
2018-07-15T08:48:16.755Z,73.40
2018-07-15T08:50:45.076Z,75.90
2018-07-15T08:53:14.100Z,76.50
2018-07-15T08:55:42.551Z,73.50
2018-07-15T08:58:11.329Z,71.90
2018-07-15T09:00:39.899Z,71.70
2018-07-15T09:03:08.372Z,74.10
2018-07-15T09:05:37.292Z,73.30
2018-07-15T09:08:06.387Z,65.50
2018-07-15T09:10:34.964Z,66.00
2018-07-15T09:13:03.369Z,69.80
2018-07-15T09:15:32.591Z,70.50
2018-07-15T09:18:01.111Z,69.10
2018-07-15T09:20:29.487Z,66.80
2018-07-15T09:22:57.817Z,67.80
2018-07-15T09:25:26.241Z,69.50
2018-07-15T09:27:54.701Z,62.90
2018-07-15T09:30:23.044Z,69.00
2018-07-15T09:32:51.407Z,67.30
2018-07-15T09:35:19.755Z,66.30
2018-07-15T09:37:48.093Z,69.50
2018-07-15T09:40:23.227Z,68.20
2018-07-15T09:42:51.600Z,62.50
2018-07-15T09:45:23.098Z,63.30
2018-07-15T09:47:54.669Z,67.00
2018-07-15T09:50:23.133Z,67.40
2018-07-15T09:52:51.468Z,66.00
2018-07-15T09:55:20.088Z,63.80
2018-07-15T09:57:50.134Z,64.30
2018-07-15T10:00:31.026Z,60.80
2018-07-15T10:02:59.376Z,64.20
2018-07-15T10:05:34.025Z,64.10
2018-07-15T10:10:32.468Z,58.50
2018-07-15T10:13:00.745Z,61.30
2018-07-15T10:15:29.095Z,61.90
2018-07-15T10:17:58.109Z,62.80
2018-07-15T10:20:28.248Z,60.50
2018-07-15T10:23:00.159Z,61.20
2018-07-15T10:25:33.021Z,59.20
2018-07-15T10:28:04.113Z,59.60
2018-07-15T10:30:39.036Z,63.00
2018-07-15T10:33:19.377Z,57.70
2018-07-15T10:35:58.493Z,60.10
2018-07-15T10:38:30.346Z,60.20
2018-07-15T10:41:04.102Z,61.80
2018-07-15T10:43:41.101Z,57.50
2018-07-15T10:46:16.717Z,55.60
2018-07-15T10:48:56.230Z,56.00
2018-07-15T10:51:34.308Z,55.70
2018-07-15T10:54:06.531Z,55.90
2018-07-15T10:56:43.574Z,56.40
2018-07-15T10:59:15.831Z,53.70
2018-07-15T11:01:52.685Z,53.40
2018-07-15T11:04:21.135Z,53.20
2018-07-15T11:06:57.337Z,51.20
2018-07-15T11:09:29.733Z,48.10
2018-07-15T11:12:04.944Z,50.40
2018-07-15T11:14:35.565Z,53.40
2018-07-15T11:17:14.325Z,49.30
2018-07-15T11:19:51.286Z,47.10
2018-07-15T11:22:22.611Z,51.90
2018-07-15T11:25:01.042Z,50.60
2018-07-15T11:27:32.437Z,48.70
2018-07-15T11:30:02.907Z,49.00
2018-07-15T11:32:39.793Z,51.70
2018-07-15T11:35:12.284Z,49.20
2018-07-15T11:37:44.669Z,48.90
2018-07-15T11:40:13.110Z,50.20
2018-07-15T11:42:41.420Z,49.10
2018-07-15T11:45:19.990Z,46.70
2018-07-15T11:47:48.376Z,45.20
2018-07-15T11:50:16.796Z,45.70
2018-07-15T11:52:45.097Z,42.70
2018-07-15T11:55:13.522Z,42.80
2018-07-15T11:57:41.888Z,47.00
2018-07-15T12:00:10.340Z,44.30
2018-07-15T12:02:38.872Z,44.50
2018-07-15T12:05:07.524Z,44.10
2018-07-15T12:07:37.848Z,44.90
2018-07-15T12:10:12.709Z,46.30
2018-07-15T12:12:47.854Z,42.70
2018-07-15T12:15:22.286Z,39.60
2018-07-15T12:17:55.168Z,44.10
2018-07-15T12:20:26.875Z,43.60
2018-07-15T12:25:23.432Z,42.10
2018-07-15T12:27:52.517Z,43.80
2018-07-15T12:30:20.919Z,42.20
2018-07-15T12:32:56.380Z,43.00
2018-07-15T12:35:31.878Z,40.70
2018-07-15T12:38:08.001Z,41.40
2018-07-15T12:40:44.697Z,41.00
2018-07-15T12:43:16.112Z,42.50
2018-07-15T12:45:50.678Z,42.30
2018-07-15T12:48:25.670Z,41.60
2018-07-15T12:51:07.902Z,40.70
2018-07-15T12:53:37.488Z,39.70
2018-07-15T12:56:06.263Z,41.00
2018-07-15T12:58:35.199Z,40.90
2018-07-15T13:01:03.786Z,38.90
2018-07-15T13:03:33.219Z,38.50
2018-07-15T13:06:01.559Z,40.30
2018-07-15T13:08:30.334Z,38.80
2018-07-15T13:10:58.960Z,36.30
2018-07-15T13:13:27.797Z,37.00
2018-07-15T13:15:57.050Z,34.40
2018-07-15T13:18:26.052Z,39.30
2018-07-15T13:20:54.371Z,36.90
2018-07-15T13:23:22.828Z,37.30
2018-07-15T13:25:51.147Z,32.30
2018-07-15T13:28:19.484Z,37.40
2018-07-15T13:30:48.071Z,33.30
2018-07-15T13:33:16.437Z,33.30
2018-07-15T13:35:44.743Z,37.90
2018-07-15T13:38:13.084Z,37.50
2018-07-15T13:40:42.160Z,38.70
2018-07-15T13:43:10.513Z,36.60
2018-07-15T13:45:39.435Z,35.60
2018-07-15T13:48:08.264Z,36.80
2018-07-15T13:50:37.458Z,31.40
2018-07-15T13:53:05.819Z,32.30
2018-07-15T13:55:34.166Z,35.40
2018-07-15T13:58:02.586Z,35.30
2018-07-15T14:00:30.992Z,31.20
2018-07-15T14:05:28.319Z,32.90
2018-07-15T14:07:56.632Z,35.00
2018-07-15T14:10:24.964Z,33.40
2018-07-15T14:12:53.273Z,33.90
2018-07-15T14:15:21.679Z,32.20
2018-07-15T14:17:49.920Z,31.70
2018-07-15T14:20:18.925Z,33.80
2018-07-15T14:22:48.412Z,31.60
2018-07-15T14:25:16.744Z,33.80
2018-07-15T14:27:45.132Z,35.00
2018-07-15T14:30:13.409Z,32.80
2018-07-15T14:32:41.720Z,29.10
2018-07-15T14:35:10.032Z,31.40
2018-07-15T14:37:38.450Z,32.00
2018-07-15T14:40:06.784Z,32.80
2018-07-15T14:42:36.088Z,31.80
2018-07-15T14:45:05.056Z,33.80
2018-07-15T14:47:33.396Z,29.00
2018-07-15T14:50:01.821Z,30.00
2018-07-15T14:52:30.143Z,31.40
2018-07-15T14:54:58.487Z,32.30
2018-07-15T14:57:26.848Z,33.30
2018-07-15T14:59:55.196Z,30.30
2018-07-15T15:02:23.524Z,32.30
2018-07-15T15:04:51.848Z,31.50
2018-07-15T15:07:20.164Z,31.90
2018-07-15T15:09:49.160Z,28.90
2018-07-15T15:12:17.474Z,32.40
2018-07-15T15:14:45.812Z,33.30
2018-07-15T15:17:14.132Z,32.10
2018-07-15T15:19:42.480Z,30.50
2018-07-15T15:22:10.792Z,30.50
2018-07-15T15:24:39.161Z,31.80
2018-07-15T15:27:08.355Z,31.60
2018-07-15T15:29:36.673Z,32.60
2018-07-15T15:32:05.061Z,33.30
2018-07-15T15:34:33.349Z,32.20
2018-07-15T15:37:01.781Z,30.50
2018-07-15T15:39:30.091Z,29.90
2018-07-15T15:41:58.564Z,29.60
2018-07-15T15:44:26.809Z,30.50
2018-07-15T15:46:55.130Z,31.10
2018-07-15T15:49:23.466Z,31.30
2018-07-15T15:51:52.284Z,32.10
2018-07-15T15:54:20.620Z,30.20
2018-07-15T15:56:48.956Z,32.00
2018-07-15T15:59:17.288Z,30.60
2018-07-15T16:01:45.649Z,32.10
2018-07-15T16:04:14.487Z,30.50
2018-07-15T16:06:42.841Z,30.70
2018-07-15T16:09:11.153Z,30.50
2018-07-15T16:11:39.599Z,30.90
2018-07-15T16:14:07.920Z,30.10
2018-07-15T16:16:36.306Z,31.50
2018-07-15T16:19:04.668Z,30.20
2018-07-15T16:21:32.991Z,31.10
2018-07-15T16:24:01.336Z,32.60
2018-07-15T16:26:29.707Z,29.20
2018-07-15T16:28:58.048Z,30.60
2018-07-15T16:31:26.369Z,31.60
2018-07-15T16:33:54.856Z,31.00
2018-07-15T16:36:23.440Z,31.30
2018-07-15T16:38:51.752Z,30.30
2018-07-15T16:41:21.292Z,30.90
2018-07-15T16:43:49.684Z,30.00
2018-07-15T16:46:18.029Z,30.20
2018-07-15T16:48:46.445Z,30.80
2018-07-15T16:51:14.749Z,30.40
2018-07-15T16:53:43.088Z,30.40
2018-07-15T16:56:11.466Z,31.40
2018-07-15T16:58:39.752Z,32.10
2018-07-15T17:01:08.059Z,32.20
2018-07-15T17:03:36.420Z,32.50
2018-07-15T17:06:04.728Z,33.30
2018-07-15T17:08:33.064Z,32.20
2018-07-15T17:11:01.364Z,32.60
2018-07-15T17:13:30.291Z,33.70
2018-07-15T17:15:58.595Z,33.50
2018-07-15T17:18:26.953Z,34.00
2018-07-15T17:20:55.267Z,34.00
2018-07-15T17:23:23.607Z,35.80
2018-07-15T17:25:51.936Z,36.00
2018-07-15T17:28:20.234Z,34.50
2018-07-15T17:30:48.588Z,35.30
2018-07-15T17:33:16.905Z,34.80
2018-07-15T17:35:45.220Z,34.40
2018-07-15T17:38:13.533Z,34.00
2018-07-15T17:40:41.979Z,34.60
2018-07-15T17:43:10.175Z,35.10
2018-07-15T17:45:39.496Z,35.90
2018-07-15T17:48:07.840Z,36.00
2018-07-15T17:50:36.415Z,36.10
2018-07-15T17:53:04.885Z,36.40
2018-07-15T17:55:33.198Z,36.10
2018-07-15T17:58:01.568Z,37.00
2018-07-15T18:00:29.888Z,36.50
2018-07-15T18:02:58.211Z,36.40
2018-07-15T18:05:26.612Z,36.90
2018-07-15T18:07:54.954Z,38.70
2018-07-15T18:10:23.464Z,36.60
2018-07-15T18:12:52.020Z,35.80
2018-07-15T18:15:20.660Z,36.30
2018-07-15T18:17:49.037Z,36.70
2018-07-15T18:20:18.234Z,36.50
2018-07-15T18:22:47.005Z,36.70
2018-07-15T18:25:15.620Z,36.90
2018-07-15T18:27:44.029Z,37.00
2018-07-15T18:30:12.505Z,37.40
2018-07-15T18:32:41.048Z,37.40
2018-07-15T18:35:11.661Z,37.90
2018-07-15T18:37:40.033Z,37.90
2018-07-15T18:40:08.407Z,37.30
2018-07-15T18:42:36.856Z,37.20
2018-07-15T18:45:06.059Z,37.30
2018-07-15T18:50:02.503Z,39.00
2018-07-15T18:52:30.861Z,39.00
2018-07-15T18:54:59.217Z,39.40
2018-07-15T18:57:27.592Z,39.20
2018-07-15T18:59:56.221Z,40.20
2018-07-15T19:02:25.092Z,40.50
2018-07-15T19:04:54.349Z,40.40
2018-07-15T19:07:22.852Z,40.80
2018-07-15T19:09:51.194Z,40.70
2018-07-15T19:12:19.559Z,41.20
2018-07-15T19:14:47.892Z,42.00
2018-07-15T19:17:16.219Z,42.70
2018-07-15T19:19:44.652Z,42.80
2018-07-15T19:22:13.240Z,43.30
2018-07-15T19:24:41.692Z,43.50
2018-07-15T19:27:09.915Z,43.50
2018-07-15T19:29:38.217Z,44.90
2018-07-15T19:32:06.723Z,45.40
2018-07-15T19:34:35.048Z,46.10
2018-07-15T19:37:03.403Z,47.00
2018-07-15T19:39:31.731Z,46.60
2018-07-15T19:42:00.088Z,47.40
2018-07-15T19:44:28.484Z,48.20
2018-07-15T19:46:56.952Z,48.90
2018-07-15T19:49:25.450Z,49.00
2018-07-15T19:51:53.808Z,49.90
2018-07-15T19:54:22.135Z,49.50
2018-07-15T19:56:50.824Z,50.20
2018-07-15T19:59:19.312Z,50.50
2018-07-15T20:01:47.626Z,50.30
2018-07-15T20:04:16.189Z,51.50
2018-07-15T20:06:44.612Z,51.00
2018-07-15T20:09:13.048Z,51.10
2018-07-15T20:11:41.515Z,51.70
2018-07-15T20:14:09.997Z,51.30
2018-07-15T20:16:38.431Z,51.90
2018-07-15T20:19:07.030Z,52.40
2018-07-15T20:21:36.700Z,51.70
2018-07-15T20:24:05.109Z,52.00
2018-07-15T20:26:33.471Z,52.40
2018-07-15T20:29:01.820Z,52.70
2018-07-15T20:31:30.200Z,53.50
2018-07-15T20:33:58.610Z,53.80
2018-07-15T20:36:26.936Z,54.70
2018-07-15T20:38:55.592Z,54.90
2018-07-15T20:41:25.077Z,55.30
2018-07-15T20:43:53.396Z,56.10
2018-07-15T20:46:21.706Z,56.50
2018-07-15T20:48:50.016Z,56.60
2018-07-15T20:51:18.328Z,56.70
2018-07-15T20:53:46.632Z,57.90
2018-07-15T20:56:15.101Z,57.90
2018-07-15T20:58:43.683Z,59.80
2018-07-15T21:01:12.081Z,59.20
2018-07-15T21:03:40.439Z,60.10
2018-07-15T21:06:08.775Z,59.70
2018-07-15T21:08:37.096Z,59.00
2018-07-15T21:11:05.577Z,60.50
2018-07-15T21:13:34.589Z,61.00
2018-07-15T21:16:03.569Z,60.70
2018-07-15T21:18:32.486Z,60.40
2018-07-15T21:21:00.816Z,60.20
2018-07-15T21:23:30.222Z,60.60
2018-07-15T21:25:58.631Z,62.00
2018-07-15T21:28:27.371Z,63.90
2018-07-15T21:30:55.690Z,63.90
2018-07-15T21:33:25.432Z,65.10
2018-07-15T21:35:53.936Z,66.80
2018-07-15T21:38:23.315Z,66.60
2018-07-15T21:40:51.707Z,65.70
2018-07-15T21:43:20.108Z,66.20
2018-07-15T21:45:48.563Z,66.00
2018-07-15T21:48:16.865Z,64.10
2018-07-15T21:50:45.629Z,64.20
2018-07-15T21:53:13.955Z,63.70
2018-07-15T21:55:42.272Z,62.90
2018-07-15T21:58:10.684Z,63.10
2018-07-15T22:00:39.213Z,64.30
2018-07-15T22:03:07.597Z,63.90
2018-07-15T22:05:36.078Z,64.10
2018-07-15T22:08:16.296Z,64.40
2018-07-15T22:10:46.032Z,65.00
2018-07-15T22:13:14.380Z,65.30
2018-07-15T22:15:43.068Z,65.10
2018-07-15T22:18:11.400Z,66.20
2018-07-15T22:20:39.955Z,66.70
2018-07-15T22:23:08.707Z,67.60
2018-07-15T22:25:37.657Z,68.70
2018-07-15T22:28:06.174Z,69.70
2018-07-15T22:30:34.513Z,70.20
2018-07-15T22:33:02.864Z,69.70
2018-07-15T22:35:31.288Z,70.20
2018-07-15T22:37:59.629Z,69.00
2018-07-15T22:40:28.061Z,69.50
2018-07-15T22:42:56.385Z,69.80
2018-07-15T22:45:24.767Z,70.10
2018-07-15T22:47:53.082Z,70.80
2018-07-15T22:50:21.383Z,71.30
2018-07-15T22:52:50.335Z,71.20
2018-07-15T22:55:18.699Z,71.10
2018-07-15T22:57:47.317Z,71.10
2018-07-15T23:00:15.680Z,72.10
2018-07-15T23:02:43.998Z,72.70
2018-07-15T23:05:34.603Z,73.00
2018-07-15T23:08:03.260Z,73.20
2018-07-15T23:10:31.702Z,73.20
2018-07-15T23:13:00.204Z,72.10
2018-07-15T23:15:28.603Z,72.30
2018-07-15T23:17:57.956Z,71.50
2018-07-15T23:20:26.727Z,72.90
2018-07-15T23:22:55.248Z,73.40
2018-07-15T23:25:23.707Z,73.80
2018-07-15T23:27:53.460Z,74.20
2018-07-15T23:30:21.820Z,74.30
2018-07-15T23:32:50.179Z,75.00
2018-07-15T23:35:18.579Z,74.40
2018-07-15T23:37:46.986Z,74.10
2018-07-15T23:40:15.452Z,74.70
2018-07-15T23:42:43.757Z,74.90
2018-07-15T23:45:12.700Z,75.50
2018-07-15T23:47:41.172Z,75.10
2018-07-15T23:50:09.672Z,74.90
2018-07-15T23:52:38.037Z,74.70
2018-07-15T23:55:06.404Z,75.30
2018-07-15T23:57:34.752Z,75.90
